Time;durP1;ratioP1;P1;durP2;ratioP2;P2;SDS_P1;SDS_P2;PMS_P1;PMS_P2;Temp;Humidity;BMP_temperature;BMP_pressure;BME280_temperature;BME280_humidity;BME280_pressure;Samples;Min_cycle;Max_cycle;Signal;HPM_P1;HPM_P2
2023/01/16 00:01:24;;;;;;;7.50;4.18;;;5.40;99.90;;;;;;5015069;28;20037;-61
2023/01/16 00:03:50;;;;;;;6.45;4.13;;;5.30;99.90;;;;;;5002665;28;20037;-61
2023/01/16 00:06:16;;;;;;;5.32;3.72;;;5.30;99.90;;;;;;5004306;28;20092;-60
2023/01/16 00:08:43;;;;;;;8.48;3.92;;;5.30;99.90;;;;;;5006756;28;20052;-61
2023/01/16 00:11:10;;;;;;;6.95;3.33;;;5.30;99.90;;;;;;5005739;28;20037;-61
2023/01/16 00:13:36;;;;;;;8.23;3.13;;;5.30;99.90;;;;;;4989619;28;20124;-61
2023/01/16 00:16:02;;;;;;;4.93;3.17;;;5.30;99.90;;;;;;5028309;28;20053;-61
2023/01/16 00:18:27;;;;;;;6.18;3.05;;;5.30;99.90;;;;;;5001822;28;20042;-62
2023/01/16 00:20:56;;;;;;;5.97;3.33;;;5.30;99.90;;;;;;5002595;28;20037;-62
2023/01/16 00:23:22;;;;;;;5.40;2.72;;;5.30;99.90;;;;;;5003418;28;20054;-62
2023/01/16 00:25:47;;;;;;;7.90;3.38;;;5.30;99.90;;;;;;4988720;28;20043;-62
2023/01/16 00:28:13;;;;;;;6.60;3.60;;;5.30;99.90;;;;;;5006188;28;20049;-61
2023/01/16 00:30:40;;;;;;;5.53;3.63;;;5.30;99.90;;;;;;4987265;28;20025;-62
2023/01/16 00:33:06;;;;;;;7.30;4.47;;;5.30;99.90;;;;;;5009324;28;20407;-61
2023/01/16 00:35:35;;;;;;;7.93;4.45;;;5.30;99.90;;;;;;4990129;28;20133;-62
2023/01/16 00:38:01;;;;;;;7.50;4.10;;;5.20;99.90;;;;;;4988504;28;20060;-61
2023/01/16 00:40:27;;;;;;;9.40;4.50;;;5.20;99.90;;;;;;5001085;28;20083;-61
2023/01/16 00:42:53;;;;;;;9.05;4.75;;;5.20;99.90;;;;;;5009182;28;20121;-59
2023/01/16 00:45:19;;;;;;;8.50;4.53;;;5.20;99.90;;;;;;4989793;28;20045;-62
2023/01/16 00:47:45;;;;;;;7.82;4.32;;;5.20;99.90;;;;;;4999817;28;20037;-60
2023/01/16 00:50:11;;;;;;;7.75;4.50;;;5.20;99.90;;;;;;5003664;28;20511;-61
2023/01/16 00:52:37;;;;;;;8.55;4.38;;;5.20;99.90;;;;;;5000228;28;20495;-61
2023/01/16 00:55:03;;;;;;;8.68;4.40;;;5.20;99.90;;;;;;5019197;28;20037;-61
2023/01/16 00:57:29;;;;;;;11.27;5.18;;;5.20;99.90;;;;;;5003372;28;20075;-61
2023/01/16 00:59:54;;;;;;;9.88;4.78;;;5.20;99.90;;;;;;5009839;28;20041;-61
2023/01/16 01:02:20;;;;;;;9.95;4.82;;;5.20;99.90;;;;;;4989186;28;20044;-61
2023/01/16 01:04:48;;;;;;;10.43;6.45;;;5.20;99.90;;;;;;5005360;28;20065;-59
2023/01/16 01:07:14;;;;;;;10.70;5.57;;;5.20;99.90;;;;;;5009125;28;20060;-61
2023/01/16 01:09:40;;;;;;;10.65;5.25;;;5.20;99.90;;;;;;5008591;28;20178;-60
2023/01/16 01:12:05;;;;;;;9.60;5.00;;;5.20;99.90;;;;;;5001521;28;20059;-60
2023/01/16 01:14:31;;;;;;;7.20;5.07;;;5.20;99.90;;;;;;5018028;28;20041;-61
2023/01/16 01:16:57;;;;;;;10.55;5.40;;;5.20;99.90;;;;;;4991738;28;20044;-61
2023/01/16 01:19:22;;;;;;;10.13;5.25;;;5.20;99.90;;;;;;5011274;28;20522;-60
2023/01/16 01:21:48;;;;;;;11.75;5.32;;;5.10;99.90;;;;;;5023821;28;20587;-61
2023/01/16 01:24:14;;;;;;;7.50;4.82;;;5.10;99.90;;;;;;5025138;28;20284;-60
2023/01/16 01:26:40;;;;;;;10.07;5.07;;;5.10;99.90;;;;;;5011753;28;20041;-61
2023/01/16 01:29:05;;;;;;;13.23;5.55;;;5.10;99.90;;;;;;5003909;28;20060;-62
2023/01/16 01:31:31;;;;;;;8.20;4.60;;;5.10;99.90;;;;;;5002137;28;20519;-61
2023/01/16 01:33:57;;;;;;;7.43;5.25;;;5.10;99.90;;;;;;5002500;28;20037;-61
2023/01/16 01:36:22;;;;;;;8.60;5.45;;;5.10;99.90;;;;;;5020504;28;20101;-61
2023/01/16 01:38:50;;;;;;;8.93;5.55;;;5.10;99.90;;;;;;4996968;28;20041;-61
2023/01/16 01:41:17;;;;;;;18.67;7.47;;;5.10;99.90;;;;;;4993492;28;20511;-62
2023/01/16 01:43:51;;;;;;;7.45;4.60;;;5.10;99.90;;;;;;5003250;28;20147;-62
2023/01/16 01:46:45;;;;;;;8.77;4.40;;;5.10;99.90;;;;;;4996555;28;20046;-61
2023/01/16 01:49:24;;;;;;;14.52;5.30;;;5.10;99.90;;;;;;4979827;28;20045;-60
2023/01/16 01:51:51;;;;;;;9.85;4.70;;;5.10;99.90;;;;;;4978489;28;21034;-60
2023/01/16 01:54:25;;;;;;;8.77;4.43;;;5.10;99.90;;;;;;4978432;28;20618;-61
2023/01/16 01:57:00;;;;;;;;;;;5.00;99.90;;;;;;5002686;28;20038;-61
2023/01/16 01:59:32;;;;;;;13.75;4.90;;;5.00;99.90;;;;;;5006766;28;20356;-61
2023/01/16 02:01:59;;;;;;;8.73;4.38;;;5.00;99.90;;;;;;4999652;28;20110;-61
2023/01/16 02:04:31;;;;;;;8.20;4.65;;;4.90;99.90;;;;;;5000735;28;20664;-61
2023/01/16 02:07:01;;;;;;;9.52;4.47;;;5.00;99.90;;;;;;4999707;28;21358;-61
2023/01/16 02:09:27;;;;;;;9.60;4.63;;;4.90;99.90;;;;;;5017608;28;20049;-61
2023/01/16 02:12:08;;;;;;;12.20;4.40;;;4.90;99.90;;;;;;5001142;28;20037;-61
2023/01/16 02:14:37;;;;;;;11.70;4.40;;;4.90;99.90;;;;;;5017960;28;20045;-62
2023/01/16 02:20:08;;;;;;;9.93;4.45;;;4.90;99.90;;;;;;5018221;28;20037;-62
2023/01/16 02:23:12;;;;;;;7.35;4.15;;;4.90;99.90;;;;;;5003331;28;20064;-62
2023/01/16 02:25:41;;;;;;;6.15;3.72;;;4.90;99.90;;;;;;4985799;28;20527;-60
2023/01/16 02:28:37;;;;;;;7.18;3.70;;;4.90;99.90;;;;;;4987467;28;20696;-61
2023/01/16 02:31:12;;;;;;;8.70;4.43;;;4.80;99.90;;;;;;5004856;28;20037;-62
2023/01/16 02:33:56;;;;;;;10.02;4.20;;;4.80;99.90;;;;;;4999699;28;20491;-62
2023/01/16 02:36:25;;;;;;;;;;;4.80;99.90;;;;;;5000728;28;20053;-62
2023/01/16 02:39:15;;;;;;;6.03;3.50;;;4.80;99.90;;;;;;5010992;28;19917;-60
2023/01/16 02:42:03;;;;;;;8.25;3.75;;;4.70;99.90;;;;;;5001130;28;20042;-60
2023/01/16 02:44:59;;;;;;;8.65;4.22;;;4.70;99.90;;;;;;5012170;28;20480;-61
2023/01/16 02:47:31;;;;;;;8.75;3.72;;;4.70;99.90;;;;;;4998239;28;20120;-62
2023/01/16 02:50:29;;;;;;;7.53;4.22;;;4.60;99.90;;;;;;5008283;28;20087;-63
2023/01/16 02:53:12;;;;;;;6.20;3.53;;;4.60;99.90;;;;;;4987021;28;20042;-62
2023/01/16 02:56:14;;;;;;;7.05;4.20;;;4.60;99.90;;;;;;5011195;28;20072;-61
2023/01/16 02:58:44;;;;;;;8.73;3.67;;;4.60;99.90;;;;;;5009697;28;20218;-62
2023/01/16 03:01:11;;;;;;;7.47;3.85;;;4.60;99.90;;;;;;5007827;28;20061;-62
2023/01/16 03:03:43;;;;;;;11.38;4.70;;;4.60;99.90;;;;;;5010045;28;20123;-59
2023/01/16 03:06:28;;;;;;;6.78;4.15;;;4.60;99.90;;;;;;5002724;28;20094;-61
2023/01/16 03:09:26;;;;;;;8.70;4.57;;;4.60;99.90;;;;;;4998638;28;20033;-60
2023/01/16 03:12:13;;;;;;;11.80;5.40;;;4.60;99.90;;;;;;5024765;28;20045;-61
2023/01/16 03:15:10;;;;;;;8.30;4.18;;;4.60;99.90;;;;;;5006274;28;20688;-59
2023/01/16 03:18:02;;;;;;;7.10;4.40;;;4.70;99.90;;;;;;5001344;28;20519;-60
2023/01/16 03:20:39;;;;;;;11.02;4.97;;;4.70;99.90;;;;;;5005733;28;20045;-61
2023/01/16 03:23:20;;;;;;;13.07;4.97;;;4.70;99.90;;;;;;5018208;28;20125;-62
2023/01/16 03:25:54;;;;;;;9.88;5.22;;;4.70;99.90;;;;;;5002718;28;20037;-61
2023/01/16 03:28:26;;;;;;;9.88;5.28;;;4.70;99.90;;;;;;4999883;28;20042;-60
2023/01/16 03:31:09;;;;;;;12.05;5.55;;;4.70;99.90;;;;;;5018598;28;20454;-61
2023/01/16 03:34:12;;;;;;;10.35;6.55;;;4.70;99.90;;;;;;5016283;28;20037;-61
2023/01/16 03:36:54;;;;;;;9.05;6.10;;;4.70;99.90;;;;;;5003826;28;21285;-61
2023/01/16 03:39:27;;;;;;;11.60;6.68;;;4.70;99.90;;;;;;5005402;28;20049;-62
2023/01/16 03:41:57;;;;;;;12.00;6.40;;;4.70;99.90;;;;;;5007458;28;20057;-61
2023/01/16 03:44:32;;;;;;;16.48;7.45;;;4.60;99.90;;;;;;5002919;28;20073;-61
2023/01/16 03:47:00;;;;;;;17.77;8.00;;;4.70;99.90;;;;;;5021227;28;20485;-61
2023/01/16 03:49:37;;;;;;;14.07;7.97;;;4.70;99.90;;;;;;5007874;28;20115;-61
2023/01/16 03:52:05;;;;;;;13.07;8.15;;;4.70;99.90;;;;;;4992379;28;20044;-61
2023/01/16 03:54:54;;;;;;;11.80;7.95;;;4.70;99.90;;;;;;5005647;28;20091;-61
2023/01/16 03:57:27;;;;;;;18.15;7.45;;;4.70;99.90;;;;;;5010632;28;20463;-61
2023/01/16 03:59:53;;;;;;;12.95;7.57;;;4.70;99.90;;;;;;5000017;28;20040;-59
2023/01/16 04:02:31;;;;;;;12.75;6.93;;;4.70;99.90;;;;;;5006893;28;20029;-59
2023/01/16 04:05:00;;;;;;;14.77;7.78;;;4.70;99.90;;;;;;5006511;28;20257;-59
2023/01/16 04:07:51;;;;;;;11.73;6.63;;;4.70;99.90;;;;;;5018804;28;20095;-59
2023/01/16 04:10:25;;;;;;;13.73;8.18;;;4.70;99.90;;;;;;5023368;28;20092;-60
2023/01/16 04:12:57;;;;;;;10.32;7.10;;;4.70;99.90;;;;;;5016316;28;20033;-61
2023/01/16 04:15:26;;;;;;;14.20;7.43;;;4.70;99.90;;;;;;4999043;28;20076;-61
2023/01/16 04:17:52;;;;;;;17.58;7.35;;;4.70;99.90;;;;;;5002241;28;20041;-61
2023/01/16 04:20:19;;;;;;;11.52;7.68;;;4.80;99.90;;;;;;5008152;28;20049;-61
2023/01/16 04:22:49;;;;;;;10.48;6.93;;;4.70;99.90;;;;;;4994235;28;20037;-61
2023/01/16 04:25:16;;;;;;;13.63;7.97;;;4.80;99.90;;;;;;5003868;28;20567;-61
2023/01/16 04:27:42;;;;;;;11.60;7.53;;;4.80;99.90;;;;;;5006128;28;20134;-62
2023/01/16 04:30:08;;;;;;;14.63;8.07;;;4.80;99.90;;;;;;4987621;28;20068;-61
2023/01/16 04:32:34;;;;;;;15.30;8.02;;;4.80;99.90;;;;;;5003260;28;20333;-62
2023/01/16 04:34:59;;;;;;;18.20;8.68;;;4.80;99.90;;;;;;5003280;28;20514;-61
2023/01/16 04:37:25;;;;;;;16.00;9.23;;;4.80;99.90;;;;;;4984148;28;20063;-61
2023/01/16 04:39:52;;;;;;;19.90;9.95;;;4.80;99.90;;;;;;5017303;28;20033;-62
2023/01/16 04:42:18;;;;;;;14.07;9.52;;;4.80;99.90;;;;;;5013206;28;20045;-62
2023/01/16 04:44:44;;;;;;;15.32;9.40;;;4.80;99.90;;;;;;4980230;28;20037;-61
2023/01/16 04:47:13;;;;;;;16.30;10.63;;;4.90;99.90;;;;;;5007162;28;20073;-62
2023/01/16 04:49:39;;;;;;;16.88;10.23;;;4.90;99.90;;;;;;4971967;23;21385;-62
2023/01/16 04:52:08;;;;;;;17.38;10.70;;;4.90;99.90;;;;;;4944306;28;20070;-61
2023/01/16 04:54:33;;;;;;;16.67;10.43;;;4.90;99.90;;;;;;4944987;28;20128;-61
2023/01/16 04:57:00;;;;;;;17.60;10.32;;;4.90;99.90;;;;;;4914498;28;20178;-62
2023/01/16 04:59:29;;;;;;;19.15;11.07;;;4.90;99.90;;;;;;4935265;28;20414;-59
2023/01/16 05:01:55;;;;;;;19.88;11.27;;;4.90;99.90;;;;;;4943952;28;20042;-62
2023/01/16 05:04:21;;;;;;;19.40;11.48;;;4.90;99.90;;;;;;4941996;28;20092;-61
2023/01/16 05:06:47;;;;;;;17.00;11.20;;;4.90;99.90;;;;;;4950695;28;20338;-60
2023/01/16 05:09:12;;;;;;;20.02;12.10;;;4.90;99.90;;;;;;4972709;28;20049;-61
2023/01/16 05:11:38;;;;;;;22.75;11.35;;;4.90;99.90;;;;;;4965479;28;20080;-60
2023/01/16 05:14:07;;;;;;;19.27;12.48;;;4.90;99.90;;;;;;4949173;28;20210;-61
2023/01/16 05:16:35;;;;;;;19.40;10.98;;;4.90;99.90;;;;;;4962283;28;20045;-61
2023/01/16 05:19:04;;;;;;;20.65;12.43;;;4.90;99.90;;;;;;4934734;28;20395;-61
2023/01/16 05:21:31;;;;;;;22.48;12.23;;;5.00;99.90;;;;;;4952429;28;20063;-61
2023/01/16 05:23:57;;;;;;;17.52;10.98;;;4.90;99.90;;;;;;4939663;28;20515;-61
2023/01/16 05:26:22;;;;;;;21.35;12.52;;;4.90;99.90;;;;;;4944139;28;20413;-61
2023/01/16 05:28:48;;;;;;;19.38;11.70;;;4.90;99.90;;;;;;4958596;28;20037;-61
2023/01/16 05:31:17;;;;;;;21.48;12.55;;;4.90;99.90;;;;;;4944551;28;20077;-61
2023/01/16 05:33:43;;;;;;;22.20;12.50;;;4.90;99.90;;;;;;4953178;28;20418;-61
2023/01/16 05:36:09;;;;;;;20.45;12.60;;;4.90;99.90;;;;;;4951165;28;20042;-61
2023/01/16 05:38:34;;;;;;;23.25;13.25;;;4.90;99.90;;;;;;4940480;28;20312;-61
2023/01/16 05:41:00;;;;;;;21.05;12.82;;;4.90;99.90;;;;;;4952281;28;21385;-61
2023/01/16 05:43:26;;;;;;;20.23;13.68;;;4.80;99.90;;;;;;4956107;28;20051;-61
2023/01/16 05:45:52;;;;;;;20.30;12.48;;;4.80;99.90;;;;;;4953176;28;20038;-61
2023/01/16 05:48:17;;;;;;;21.58;11.75;;;4.80;99.90;;;;;;4943535;28;20043;-62
2023/01/16 05:50:43;;;;;;;19.50;13.25;;;4.80;99.90;;;;;;4921382;28;20241;-61
2023/01/16 05:53:09;;;;;;;22.95;14.02;;;4.80;99.90;;;;;;4941705;28;20045;-62
2023/01/16 05:55:48;;;;;;;22.50;13.35;;;4.80;99.90;;;;;;4938200;28;20054;-61
2023/01/16 05:58:16;;;;;;;24.42;12.90;;;4.80;99.90;;;;;;4960761;28;20073;-61
2023/01/16 06:00:42;;;;;;;21.88;13.75;;;4.80;99.90;;;;;;4942817;28;20047;-61
2023/01/16 06:03:08;;;;;;;23.08;13.88;;;4.80;99.90;;;;;;4959882;28;20437;-61
2023/01/16 06:05:35;;;;;;;23.80;14.60;;;4.80;99.90;;;;;;4920516;28;20039;-61
2023/01/16 06:08:01;;;;;;;21.63;14.35;;;4.80;99.90;;;;;;4938042;28;20487;-61
2023/01/16 06:10:27;;;;;;;25.15;14.15;;;4.80;99.90;;;;;;4939377;28;20042;-61
2023/01/16 06:12:53;;;;;;;28.10;14.85;;;4.80;99.90;;;;;;4932650;28;20370;-60
2023/01/16 06:15:19;;;;;;;22.02;14.50;;;4.80;99.90;;;;;;4944642;28;20043;-61
2023/01/16 06:17:45;;;;;;;22.63;14.65;;;4.80;99.90;;;;;;4953164;28;20034;-61
2023/01/16 06:20:11;;;;;;;25.98;14.88;;;4.80;99.90;;;;;;4943347;28;20458;-61
2023/01/16 06:22:38;;;;;;;19.15;13.20;;;4.80;99.90;;;;;;4940683;28;20073;-61
2023/01/16 06:25:04;;;;;;;25.60;13.27;;;4.80;99.90;;;;;;4929515;28;20121;-61
2023/01/16 06:27:32;;;;;;;22.38;13.18;;;4.70;99.90;;;;;;4946451;28;20134;-61
2023/01/16 06:29:58;;;;;;;21.30;12.10;;;4.70;99.90;;;;;;4944078;28;20167;-60
2023/01/16 06:32:23;;;;;;;22.60;13.35;;;4.70;99.90;;;;;;4936108;28;20043;-61
2023/01/16 06:34:49;;;;;;;19.52;11.98;;;4.70;99.90;;;;;;4943804;28;20576;-62
2023/01/16 06:37:15;;;;;;;19.33;13.27;;;4.70;99.90;;;;;;4940963;28;20057;-62
2023/01/16 06:39:43;;;;;;;28.98;12.63;;;4.70;99.90;;;;;;4937095;28;20498;-61
2023/01/16 06:42:09;;;;;;;23.75;12.85;;;4.70;99.90;;;;;;4946995;28;20592;-60
2023/01/16 06:44:35;;;;;;;22.10;11.80;;;4.70;99.90;;;;;;4940932;28;20169;-61
2023/01/16 06:47:01;;;;;;;20.90;12.50;;;4.60;99.90;;;;;;4942098;28;20050;-61
2023/01/16 06:49:27;;;;;;;24.27;12.60;;;4.60;99.90;;;;;;4937973;28;20051;-61
2023/01/16 06:51:52;;;;;;;22.30;12.85;;;4.60;99.90;;;;;;4941860;28;20035;-61
2023/01/16 06:54:18;;;;;;;16.13;11.93;;;4.60;99.90;;;;;;4948181;28;20411;-59
2023/01/16 06:56:44;;;;;;;24.25;12.70;;;4.60;99.90;;;;;;4958625;28;20642;-61
2023/01/16 06:59:10;;;;;;;19.85;12.70;;;4.60;99.90;;;;;;4943690;28;20043;-62
2023/01/16 07:01:36;;;;;;;24.50;13.02;;;4.60;99.90;;;;;;4934678;28;20035;-60
2023/01/16 07:04:06;;;;;;;22.15;12.95;;;4.50;99.90;;;;;;4945019;28;20027;-61
2023/01/16 07:06:32;;;;;;;20.80;12.05;;;4.50;99.90;;;;;;4934241;28;20047;-61
2023/01/16 07:08:58;;;;;;;22.98;12.13;;;4.50;99.90;;;;;;4934446;28;20048;-60
2023/01/16 07:11:24;;;;;;;19.13;11.57;;;4.50;99.90;;;;;;4948664;28;20105;-61
2023/01/16 07:22:34;;;;;;;19.35;10.13;;;4.50;99.90;;;;;;4947548;28;20039;-61
2023/01/16 07:24:48;;;;;;;17.08;9.68;;;4.40;99.90;;;;;;4950178;28;20038;-61
2023/01/16 07:27:15;;;;;;;18.15;10.13;;;4.40;99.90;;;;;;4934153;28;20197;-60
2023/01/16 07:29:43;;;;;;;18.88;9.05;;;4.40;99.90;;;;;;4937670;28;20043;-60
2023/01/16 07:32:09;;;;;;;15.45;8.75;;;4.40;99.90;;;;;;4947213;28;20410;-61
2023/01/16 07:34:37;;;;;;;12.73;8.25;;;4.40;99.90;;;;;;4943439;28;20041;-61
2023/01/16 07:37:04;;;;;;;13.65;9.23;;;4.30;99.90;;;;;;4958066;28;20461;-62
2023/01/16 07:39:30;;;;;;;12.38;7.72;;;4.40;99.90;;;;;;4932476;28;20035;-61
2023/01/16 07:42:06;;;;;;;16.30;8.13;;;4.30;99.90;;;;;;4953989;28;20056;-61
2023/01/16 07:44:33;;;;;;;14.10;7.40;;;4.30;99.90;;;;;;4944423;28;20398;-60
2023/01/16 07:46:58;;;;;;;13.23;8.00;;;4.30;99.90;;;;;;4929306;28;20043;-59
2023/01/16 07:49:24;;;;;;;14.27;7.32;;;4.30;99.90;;;;;;4961545;28;20043;-61
2023/01/16 07:51:53;;;;;;;10.88;7.00;;;4.30;99.90;;;;;;4944084;28;20038;-62
2023/01/16 07:54:21;;;;;;;16.08;6.93;;;4.30;99.90;;;;;;4946638;28;20133;-61
2023/01/16 07:56:47;;;;;;;12.52;6.65;;;4.30;99.90;;;;;;4939757;28;20103;-61
2023/01/16 07:59:12;;;;;;;11.38;6.68;;;4.30;99.90;;;;;;4946825;28;20042;-60
2023/01/16 08:01:39;;;;;;;12.18;6.68;;;4.30;99.90;;;;;;4937025;28;20114;-61
2023/01/16 08:04:07;;;;;;;13.48;6.80;;;4.20;99.90;;;;;;4926428;28;20043;-61
2023/01/16 08:06:34;;;;;;;12.02;6.55;;;4.20;99.90;;;;;;4939978;28;20045;-60
2023/01/16 08:08:59;;;;;;;11.95;5.78;;;4.20;99.90;;;;;;4951965;28;20039;-61
2023/01/16 08:11:38;;;;;;;14.57;6.53;;;4.20;99.90;;;;;;4946512;28;20101;-60
2023/01/16 08:14:07;;;;;;;13.15;6.25;;;4.20;99.90;;;;;;4935570;28;20083;-60
2023/01/16 08:16:33;;;;;;;17.30;6.90;;;4.30;99.90;;;;;;4948622;28;20031;-60
2023/01/16 08:18:59;;;;;;;16.50;5.85;;;4.30;99.90;;;;;;4941108;28;20045;-61
2023/01/16 08:21:27;;;;;;;15.57;5.80;;;4.30;99.90;;;;;;4945729;28;20035;-60
2023/01/16 08:23:53;;;;;;;12.40;5.32;;;4.20;99.90;;;;;;4948066;28;20034;-61
2023/01/16 08:26:19;;;;;;;13.43;6.43;;;4.30;99.90;;;;;;4949741;28;20058;-59
2023/01/16 08:28:45;;;;;;;13.85;6.40;;;4.30;99.90;;;;;;4965539;28;20117;-61
2023/01/16 08:31:13;;;;;;;11.85;5.10;;;4.30;99.90;;;;;;4947581;28;20069;-61
2023/01/16 08:33:43;;;;;;;12.10;5.35;;;4.30;99.90;;;;;;4949787;28;20039;-61
2023/01/16 08:36:11;;;;;;;11.10;5.20;;;4.30;99.90;;;;;;4931390;28;20397;-61
2023/01/16 08:38:37;;;;;;;9.45;5.68;;;4.30;99.90;;;;;;4942613;28;20043;-61
2023/01/16 08:41:03;;;;;;;8.70;5.00;;;4.30;99.90;;;;;;4942235;28;20035;-61
2023/01/16 08:51:51;;;;;;;16.58;6.03;;;4.40;99.90;;;;;;4939445;28;20042;-61
2023/01/16 08:54:17;;;;;;;14.07;5.53;;;4.40;99.90;;;;;;4950256;28;20047;-61
2023/01/16 08:56:43;;;;;;;14.70;6.40;;;4.40;99.90;;;;;;4939916;28;20405;-62
2023/01/16 08:59:14;;;;;;;12.57;5.75;;;4.40;99.90;;;;;;4951400;28;20384;-62
2023/01/16 09:01:41;;;;;;;11.02;5.55;;;4.40;99.90;;;;;;4944586;28;20054;-61
2023/01/16 09:04:08;;;;;;;16.27;6.28;;;4.50;99.90;;;;;;4940641;28;20039;-62
2023/01/16 09:06:36;;;;;;;11.68;5.25;;;4.40;99.90;;;;;;4932949;28;20521;-60
2023/01/16 09:09:06;;;;;;;14.55;6.68;;;4.50;99.90;;;;;;4948385;28;20042;-61
2023/01/16 09:14:21;;;;;;;8.52;5.18;;;4.50;99.90;;;;;;4947230;28;20050;-59
2023/01/16 09:16:47;;;;;;;10.50;5.63;;;4.50;99.90;;;;;;4961697;28;20124;-61
2023/01/16 09:19:12;;;;;;;10.88;5.53;;;4.50;99.90;;;;;;4932868;28;20142;-60
2023/01/16 09:21:38;;;;;;;10.52;5.57;;;4.50;99.90;;;;;;4945185;28;20054;-62
2023/01/16 09:24:04;;;;;;;15.88;6.03;;;4.50;99.90;;;;;;4939278;28;20141;-61
2023/01/16 09:26:32;;;;;;;11.95;6.10;;;4.50;99.90;;;;;;4949948;28;20096;-62
2023/01/16 09:28:59;;;;;;;13.15;5.78;;;4.50;99.90;;;;;;4923634;28;21053;-61
2023/01/16 09:31:27;;;;;;;13.88;5.90;;;4.50;99.90;;;;;;4941203;28;20050;-62
2023/01/16 09:33:54;;;;;;;10.63;5.35;;;4.60;99.90;;;;;;4946858;28;20039;-62
2023/01/16 09:36:20;;;;;;;10.10;5.35;;;4.60;99.90;;;;;;4937560;28;20058;-62
2023/01/16 09:38:46;;;;;;;13.85;6.05;;;4.60;99.90;;;;;;4947895;28;20074;-61
2023/01/16 09:44:02;;;;;;;11.15;5.38;;;4.60;99.90;;;;;;4955402;28;20047;-61
2023/01/16 09:46:30;;;;;;;12.70;5.57;;;4.60;99.90;;;;;;4944423;28;20039;-61
2023/01/16 09:49:05;;;;;;;12.57;5.55;;;4.60;99.90;;;;;;4944432;28;20489;-61
2023/01/16 09:51:36;;;;;;;9.90;5.70;;;4.60;99.90;;;;;;4929413;28;20094;-61
2023/01/16 09:59:59;;;;;;;14.63;6.30;;;4.60;99.90;;;;;;4941149;28;20047;-60
2023/01/16 10:02:33;;;;;;;11.13;5.30;;;4.70;99.90;;;;;;4931031;28;20039;-61
2023/01/16 10:05:05;;;;;;;11.27;5.32;;;4.70;99.90;;;;;;4943673;28;20074;-61
2023/01/16 10:08:02;;;;;;;8.05;5.03;;;4.70;99.90;;;;;;4941878;28;20091;-62
2023/01/16 10:10:50;;;;;;;10.75;5.13;;;4.70;99.90;;;;;;4942958;28;20494;-61
2023/01/16 10:13:54;;;;;;;11.48;4.88;;;4.70;99.90;;;;;;4952908;28;20210;-62
2023/01/16 10:16:58;;;;;;;8.57;4.45;;;4.70;99.90;;;;;;4921521;28;20411;-61
2023/01/16 10:19:33;;;;;;;10.25;4.88;;;4.70;99.90;;;;;;4929786;28;20516;-62
2023/01/16 10:22:07;;;;;;;10.85;4.63;;;4.70;99.90;;;;;;4927719;28;20050;-61
2023/01/16 10:24:44;;;;;;;13.82;7.63;;;4.70;99.90;;;;;;4944619;28;20707;-61
2023/01/16 10:27:21;;;;;;;8.15;4.90;;;4.70;99.90;;;;;;4951241;28;20055;-61
2023/01/16 10:30:22;;;;;;;8.90;4.35;;;4.70;99.90;;;;;;4935819;28;20039;-61
2023/01/16 10:33:15;;;;;;;9.20;3.75;;;4.70;99.90;;;;;;4960901;28;20050;-61
2023/01/16 10:35:45;;;;;;;9.15;4.45;;;4.70;99.90;;;;;;4945783;28;20050;-61
2023/01/16 10:38:45;;;;;;;7.28;5.00;;;4.70;99.90;;;;;;4960833;28;20053;-61
2023/01/16 10:50:20;;;;;;;7.68;4.00;;;4.70;99.90;;;;;;4964697;23;20050;-63
2023/01/16 10:52:47;;;;;;;7.30;3.55;;;4.80;99.90;;;;;;4989881;28;20050;-63
2023/01/16 10:55:14;;;;;;;7.38;3.55;;;4.70;99.90;;;;;;4983121;28;20064;-64
2023/01/16 10:57:51;;;;;;;5.10;2.28;;;4.70;99.90;;;;;;4979508;28;20068;-63
2023/01/16 11:00:24;;;;;;;5.35;2.80;;;4.50;99.90;;;;;;4979752;28;20129;-64
2023/01/16 11:02:51;;;;;;;5.93;3.43;;;4.50;99.90;;;;;;4993225;28;20058;-64
2023/01/16 11:05:35;;;;;;;5.68;3.20;;;4.50;99.90;;;;;;4973667;28;20308;-63
2023/01/16 11:08:12;;;;;;;2.73;2.00;;;4.50;99.90;;;;;;4976577;28;20097;-64
2023/01/16 11:10:40;;;;;;;3.92;1.95;;;4.40;99.90;;;;;;4953551;28;20290;-64
2023/01/16 11:19:21;;;;;;;2.65;1.73;;;4.30;99.90;;;;;;4981706;28;20360;-64
2023/01/16 11:22:06;;;;;;;6.38;1.80;;;4.30;99.90;;;;;;4988000;28;20405;-64
2023/01/16 11:24:35;;;;;;;4.80;2.15;;;4.30;99.90;;;;;;4962158;28;20047;-64
2023/01/16 11:27:05;;;;;;;2.75;1.77;;;4.30;99.90;;;;;;4981576;28;20497;-64
2023/01/16 11:29:42;;;;;;;4.05;1.70;;;4.20;99.90;;;;;;4979579;28;20157;-63
2023/01/16 11:32:12;;;;;;;3.85;1.30;;;4.30;99.90;;;;;;4974707;28;20473;-65
2023/01/16 11:34:43;;;;;;;2.42;1.33;;;4.20;99.90;;;;;;4979993;28;20551;-64
2023/01/16 11:37:12;;;;;;;2.67;1.40;;;4.20;99.90;;;;;;4974866;28;20078;-64
2023/01/16 11:39:38;;;;;;;2.20;1.30;;;4.20;99.90;;;;;;4959317;28;20042;-63
2023/01/16 11:47:54;;;;;;;3.15;1.40;;;4.20;99.90;;;;;;4980049;28;20317;-63
2023/01/16 11:50:32;;;;;;;1.75;1.25;;;4.20;99.90;;;;;;4975594;28;20056;-64
2023/01/16 11:53:01;;;;;;;1.83;1.10;;;4.10;99.90;;;;;;4974650;28;20188;-64
2023/01/16 11:55:38;;;;;;;1.70;1.20;;;4.00;99.90;;;;;;4978488;28;20269;-65
2023/01/16 11:58:31;;;;;;;2.67;1.25;;;4.00;99.90;;;;;;4981652;28;20043;-65
2023/01/16 12:01:18;;;;;;;3.53;1.30;;;4.00;99.90;;;;;;4982534;28;20101;-64
2023/01/16 12:03:50;;;;;;;2.10;1.70;;;4.00;99.90;;;;;;4980358;28;20042;-65
2023/01/16 12:06:38;;;;;;;2.70;1.50;;;4.00;99.90;;;;;;4968163;28;20047;-64
2023/01/16 12:09:16;;;;;;;2.28;1.63;;;3.90;99.90;;;;;;4998788;28;20657;-64
2023/01/16 12:11:51;;;;;;;1.80;1.38;;;3.80;99.90;;;;;;4980222;28;20047;-64
2023/01/16 12:14:40;;;;;;;4.07;1.70;;;3.80;99.90;;;;;;4982620;28;20042;-65
2023/01/16 12:17:30;;;;;;;2.10;1.65;;;3.70;99.90;;;;;;4981453;28;20043;-64
2023/01/16 12:20:11;;;;;;;2.95;1.70;;;3.80;99.90;;;;;;4994083;28;20042;-64
2023/01/16 12:23:00;;;;;;;2.17;1.80;;;3.70;99.90;;;;;;4970125;28;20058;-63
2023/01/16 12:25:44;;;;;;;2.75;1.85;;;3.70;99.90;;;;;;4968252;28;20038;-64
2023/01/16 12:28:38;;;;;;;2.97;1.88;;;3.70;99.90;;;;;;4977082;28;20093;-63
2023/01/16 12:31:40;;;;;;;4.38;1.92;;;3.70;99.90;;;;;;4982199;28;20499;-64
2023/01/16 12:34:15;;;;;;;2.47;2.17;;;3.70;99.90;;;;;;4985492;28;20470;-64
2023/01/16 12:36:46;;;;;;;3.50;2.35;;;3.80;99.90;;;;;;4986240;28;20220;-64
2023/01/16 12:39:48;;;;;;;3.40;2.15;;;3.70;99.90;;;;;;4976980;28;20042;-63
2023/01/16 12:45:25;;;;;;;4.10;2.97;;;3.80;99.90;;;;;;4980701;28;20042;-64
2023/01/16 12:48:09;;;;;;;7.63;4.13;;;3.80;99.90;;;;;;4969731;28;20057;-63
2023/01/16 12:51:04;;;;;;;4.20;3.35;;;3.80;99.90;;;;;;4985746;28;20042;-64
2023/01/16 12:53:47;;;;;;;;;;;3.90;99.90;;;;;;4984389;28;20065;-64
2023/01/16 12:56:55;;;;;;;4.30;3.38;;;3.90;99.90;;;;;;4984860;28;19968;-64
2023/01/16 12:59:41;;;;;;;5.65;3.15;;;3.90;99.90;;;;;;4984233;28;20433;-63
2023/01/16 13:02:24;;;;;;;7.47;3.80;;;4.00;99.90;;;;;;4984198;28;20093;-64
2023/01/16 13:05:00;;;;;;;4.05;3.22;;;4.00;99.90;;;;;;4979382;28;20046;-65
2023/01/16 13:07:31;;;;;;;4.90;3.00;;;4.00;99.90;;;;;;4966344;28;20409;-65
2023/01/16 13:13:20;;;;;;;4.72;3.25;;;4.10;99.90;;;;;;4985978;28;20331;-65
2023/01/16 13:15:37;;;;;;;5.78;4.35;;;4.20;99.90;;;;;;4982912;28;20054;-64
2023/01/16 13:18:28;;;;;;;5.78;4.25;;;4.20;99.90;;;;;;4982798;28;20076;-64
2023/01/16 13:21:04;;;;;;;5.47;3.30;;;4.20;99.90;;;;;;4979085;28;20173;-63
2023/01/16 13:23:39;;;;;;;4.20;3.22;;;4.30;99.90;;;;;;4989325;28;20279;-65
2023/01/16 13:26:12;;;;;;;5.30;3.67;;;4.30;99.90;;;;;;4984019;28;20034;-64
2023/01/16 13:28:57;;;;;;;6.00;3.17;;;4.40;99.90;;;;;;4980978;28;20042;-62
2023/01/16 13:31:38;;;;;;;4.15;3.50;;;4.40;99.90;;;;;;4997136;28;20065;-64
2023/01/16 13:34:22;;;;;;;6.38;4.38;;;4.40;99.90;;;;;;4988657;28;20065;-64
2023/01/16 13:37:25;;;;;;;6.45;3.50;;;4.40;99.90;;;;;;4986695;28;20043;-64
2023/01/16 13:40:26;;;;;;;5.65;3.72;;;4.40;99.90;;;;;;5003923;28;20049;-64
2023/01/16 13:45:47;;;;;;;5.75;3.53;;;4.50;99.90;;;;;;4955126;28;20043;-63
2023/01/16 13:45:53;;;;;;;5.22;3.60;;;4.50;99.90;;;;;;4997647;28;20042;-64
2023/01/16 13:48:37;;;;;;;4.50;3.90;;;4.50;99.90;;;;;;4986036;28;20046;-64
2023/01/16 13:51:14;;;;;;;6.05;3.88;;;4.50;99.90;;;;;;4985797;28;20088;-63
2023/01/16 13:53:51;;;;;;;6.13;4.43;;;4.50;99.90;;;;;;4988049;28;20466;-64
2023/01/16 13:56:25;;;;;;;6.32;4.38;;;4.50;99.90;;;;;;4987070;28;20400;-65
2023/01/16 13:59:07;;;;;;;5.95;3.83;;;4.60;99.90;;;;;;5003178;28;20081;-64
2023/01/16 14:01:39;;;;;;;6.68;4.43;;;4.60;99.90;;;;;;4970263;28;20038;-64
2023/01/16 14:04:14;;;;;;;8.30;4.28;;;4.60;99.90;;;;;;4985311;28;20556;-63
2023/01/16 14:09:03;;;;;;;6.65;4.60;;;4.60;99.90;;;;;;4989406;28;20397;-64
2023/01/16 14:10:18;;;;;;;6.25;5.30;;;4.70;99.90;;;;;;4986853;28;20053;-64
2023/01/16 14:13:14;;;;;;;8.05;4.55;;;4.70;99.90;;;;;;4982578;28;20074;-64
2023/01/16 14:18:38;;;;;;;6.57;5.13;;;4.70;99.90;;;;;;4985860;28;20127;-64
2023/01/16 14:21:18;;;;;;;7.55;5.00;;;4.70;99.90;;;;;;4980766;28;20164;-65